Time;durP1;ratioP1;P1;durP2;ratioP2;P2;SDS_P1;SDS_P2;PMS_P1;PMS_P2;Temp;Humidity;BMP_temperature;BMP_pressure;BME280_temperature;BME280_humidity;BME280_pressure;Samples;Min_cycle;Max_cycle;Signal;HPM_P1;HPM_P2
2022/04/04 00:02:25;;;;;;;38.25;36.17;;;;;;;1.39;100.00;100744.84;5062991;28;20067;-78
2022/04/04 00:04:58;;;;;;;38.65;36.55;;;;;;;1.42;100.00;100752.44;5071238;28;20519;-78
2022/04/04 00:07:31;;;;;;;44.25;41.85;;;;;;;1.47;100.00;100744.59;5062867;28;20052;-77
2022/04/04 00:10:07;;;;;;;42.55;40.25;;;;;;;1.42;100.00;100739.03;5071492;28;20531;-78
2022/04/04 00:12:35;;;;;;;41.50;39.30;;;;;;;1.41;100.00;100740.06;5063907;28;20044;-77
2022/04/04 00:15:09;;;;;;;38.40;36.30;;;;;;;1.42;100.00;100739.03;5069950;28;20048;-79
2022/04/04 00:17:42;;;;;;;42.53;40.22;;;;;;;1.44;100.00;100726.25;5066858;28;20063;-77
2022/04/04 00:20:16;;;;;;;41.03;38.80;;;;;;;1.44;100.00;100739.66;5065734;28;20036;-78
2022/04/04 00:22:50;;;;;;;44.30;41.92;;;;;;;1.45;100.00;100727.88;5067767;28;20047;-78
2022/04/04 00:25:24;;;;;;;45.08;42.67;;;;;;;1.43;100.00;100727.28;5069607;28;20044;-79
2022/04/04 00:27:58;;;;;;;44.17;41.78;;;;;;;1.48;100.00;100722.09;5065080;28;20799;-78
2022/04/04 00:30:31;;;;;;;44.17;41.78;;;;;;;1.46;100.00;100726.84;5069477;28;20041;-80
2022/04/04 00:33:04;;;;;;;46.25;43.75;;;;;;;1.46;100.00;100719.59;5066524;28;20051;-77
2022/04/04 00:35:39;;;;;;;49.33;46.67;;;;;;;1.46;100.00;100719.59;5078056;28;20684;-77
2022/04/04 00:38:12;;;;;;;50.50;47.80;;;;;;;1.51;100.00;100716.28;5061572;28;20049;-77
2022/04/04 00:40:43;;;;;;;49.13;46.53;;;;;;;1.51;100.00;100713.59;5070336;28;20056;-79
2022/04/04 00:43:16;;;;;;;46.38;43.90;;;;;;;1.50;100.00;100704.72;5067917;28;20045;-79
2022/04/04 00:45:50;;;;;;;48.15;45.55;;;;;;;1.55;100.00;100700.56;5069710;28;20037;-78
2022/04/04 00:48:23;;;;;;;49.10;46.47;;;;;;;1.55;100.00;100695.19;5068299;28;20489;-78
2022/04/04 00:50:56;;;;;;;48.05;45.47;;;;;;;1.49;100.00;100694.22;5068363;28;20060;-79
2022/04/04 00:53:31;;;;;;;46.67;44.15;;;;;;;1.45;100.00;100680.44;5068803;28;20052;-78
2022/04/04 00:56:06;;;;;;;48.75;46.15;;;;;;;1.43;100.00;100669.09;5069585;28;20048;-78
2022/04/04 00:58:37;;;;;;;47.03;44.53;;;;;;;1.49;100.00;100665.56;5063419;28;20059;-79
2022/04/04 01:01:10;;;;;;;42.33;40.08;;;;;;;1.52;100.00;100665.09;5065388;28;20048;-77
2022/04/04 01:03:43;;;;;;;41.53;39.30;;;;;;;1.39;100.00;100659.84;5071417;28;20043;-79
2022/04/04 01:06:17;;;;;;;40.72;38.53;;;;;;;1.41;100.00;100662.31;5083770;28;20559;-79
2022/04/04 01:08:50;;;;;;;39.78;37.67;;;;;;;1.42;100.00;100659.41;5071230;28;20032;-78
2022/04/04 01:11:25;;;;;;;39.85;37.72;;;;;;;1.36;100.00;100655.75;5063932;28;20052;-80
2022/04/04 01:13:58;;;;;;;38.40;36.33;;;;;;;1.35;100.00;100653.28;5070419;28;20041;-81
2022/04/04 01:16:27;;;;;;;40.10;37.95;;;;;;;1.22;100.00;100631.97;5060335;28;20053;-79
2022/04/04 01:18:55;;;;;;;41.53;39.28;;;;;;;1.29;100.00;100643.44;5061180;28;20049;-78
2022/04/04 01:21:28;;;;;;;45.03;42.63;;;;;;;1.33;100.00;100636.59;5062230;28;20045;-80
2022/04/04 01:23:58;;;;;;;45.53;43.10;;;;;;;1.33;100.00;100618.66;5069801;28;20044;-80
2022/04/04 01:26:28;;;;;;;43.08;40.78;;;;;;;1.32;100.00;100618.88;5070122;28;20056;-81
2022/04/04 01:28:56;;;;;;;40.10;37.90;;;;;;;1.24;100.00;100606.56;5069216;28;20044;-78
2022/04/04 01:31:30;;;;;;;42.05;39.78;;;;;;;1.34;100.00;100612.25;5067962;28;20055;-79
2022/04/04 01:33:58;;;;;;;41.65;39.45;;;;;;;1.30;100.00;100600.31;5070108;28;20055;-80
2022/04/04 01:36:33;;;;;;;40.05;37.90;;;;;;;1.22;100.00;100608.66;5065692;28;20053;-80
2022/04/04 01:39:01;;;;;;;44.60;42.20;;;;;;;1.25;100.00;100588.63;5069572;28;20044;-80
2022/04/04 01:41:36;;;;;;;43.20;40.90;;;;;;;1.14;100.00;100576.75;5063288;28;20052;-78
2022/04/04 01:44:09;;;;;;;47.90;45.33;;;;;;;1.18;100.00;100583.31;5075436;28;20049;-79
2022/04/04 01:46:37;;;;;;;48.60;46.00;;;;;;;1.17;100.00;100587.88;5069309;28;20052;-80
2022/04/04 01:49:11;;;;;;;51.25;48.53;;;;;;;1.12;100.00;100585.03;5064553;28;20048;-78
2022/04/04 01:51:45;;;;;;;49.75;47.10;;;;;;;1.13;100.00;100572.44;5065606;28;20092;-78
2022/04/04 01:54:13;;;;;;;56.35;53.30;;;;;;;1.09;100.00;100561.34;5070191;28;20485;-79
2022/04/04 01:56:47;;;;;;;60.72;57.47;;;;;;;1.17;100.00;100566.44;5069046;28;20052;-79
2022/04/04 01:59:20;;;;;;;66.43;62.88;;;;;;;1.11;100.00;100558.44;5064354;28;20485;-78
2022/04/04 02:01:49;;;;;;;67.00;63.40;;;;;;;1.11;100.00;100563.81;5059030;28;20052;-80
2022/04/04 02:04:22;;;;;;;67.78;64.15;;;;;;;1.10;100.00;100559.47;5064242;28;20051;-78
2022/04/04 02:06:55;;;;;;;71.55;67.72;;;;;;;0.94;100.00;100532.19;5062959;28;20059;-79
2022/04/04 02:09:28;;;;;;;79.25;75.05;;;;;;;1.06;100.00;100548.34;5066217;28;20052;-80
2022/04/04 02:11:58;;;;;;;78.68;74.50;;;;;;;1.03;100.00;100532.72;5069557;28;20048;-80
2022/04/04 02:14:31;;;;;;;81.32;77.00;;;;;;;1.01;100.00;100532.94;5069131;28;20040;-78
2022/04/04 02:17:06;;;;;;;87.43;82.80;;;;;;;0.97;100.00;100522.91;5069385;28;20044;-79
2022/04/04 02:19:39;;;;;;;95.05;90.07;;;;;;;1.04;100.00;100522.81;5067255;28;20064;-80
2022/04/04 02:22:12;;;;;;;102.38;97.05;;;;;;;0.99;100.00;100516.25;5069373;28;20520;-79
2022/04/04 02:24:45;;;;;;;94.30;89.38;;;;;;;0.97;100.00;100510.31;5061894;28;20044;-80
2022/04/04 02:27:20;;;;;;;94.68;89.70;;;;;;;0.97;100.00;100506.81;5069472;28;20040;-80
2022/04/04 02:29:55;;;;;;;95.60;90.60;;;;;;;0.93;100.00;100511.78;5068958;28;20048;-79
2022/04/04 02:32:28;;;;;;;94.22;89.28;;;;;;;0.91;100.00;100510.38;5071096;28;20055;-78
2022/04/04 02:34:56;;;;;;;99.38;94.18;;;;;;;0.95;100.00;100501.69;5066098;28;20049;-79
2022/04/04 02:37:30;;;;;;;99.97;94.75;;;;;;;0.97;100.00;100494.22;5064497;28;20044;-78
2022/04/04 02:40:05;;;;;;;92.13;87.25;;;;;;;0.85;100.00;100486.09;5068876;28;20045;-79
2022/04/04 02:42:40;;;;;;;92.05;87.20;;;;;;;0.80;100.00;100477.91;5064091;28;20052;-80
2022/04/04 02:45:13;;;;;;;97.40;92.30;;;;;;;0.81;100.00;100481.41;5071320;28;20041;-78
2022/04/04 02:47:42;;;;;;;114.22;108.30;;;;;;;0.77;100.00;100475.66;5074567;28;20048;-79
2022/04/04 02:50:16;;;;;;;118.28;112.13;;;;;;;0.75;100.00;100472.38;5071916;28;20060;-80
2022/04/04 02:52:50;;;;;;;147.85;140.10;;;;;;;0.79;100.00;100475.47;5073316;28;20047;-79
2022/04/04 02:58:10;;;;;;;148.48;140.60;;;;;;;0.81;100.00;100460.78;5071259;28;20053;-79
2022/04/04 03:00:38;;;;;;;152.68;144.63;;;;;;;0.71;100.00;100463.16;5072888;28;20041;-78
2022/04/04 03:03:11;;;;;;;153.85;145.77;;;;;;;0.74;100.00;100448.50;5077981;28;20076;-79
2022/04/04 03:05:44;;;;;;;152.10;144.10;;;;;;;0.77;100.00;100451.53;5068710;28;20048;-78
2022/04/04 03:08:18;;;;;;;193.30;182.95;;;;;;;0.70;100.00;100444.63;5063405;28;20051;-78
2022/04/04 03:10:46;;;;;;;230.70;218.27;;;;;;;0.80;100.00;100440.41;5068947;28;20377;-78
2022/04/04 03:13:21;;;;;;;227.25;215.05;;;;;;;0.76;100.00;100441.88;5071335;28;20045;-79
2022/04/04 03:15:54;;;;;;;229.35;217.07;;;;;;;0.74;100.00;100430.56;5071330;28;20052;-78
2022/04/04 03:18:27;;;;;;;217.52;205.88;;;;;;;0.70;100.00;100432.03;5072318;28;20045;-80
2022/04/04 03:20:55;;;;;;;221.93;210.00;;;;;;;0.65;100.00;100422.00;5070130;28;20053;-79
2022/04/04 03:23:28;;;;;;;228.55;216.25;;;;;;;0.75;100.00;100420.69;5071437;28;20111;-79
2022/04/04 03:25:56;;;;;;;266.20;251.75;;;;;;;0.71;100.00;100425.66;5070548;28;20044;-78
2022/04/04 03:28:31;;;;;;;290.42;274.50;;;;;;;0.73;100.00;100412.03;5067231;28;20037;-78
2022/04/04 03:31:05;;;;;;;295.17;279.05;;;;;;;0.74;100.00;100402.97;5073051;28;20053;-80
2022/04/04 03:33:33;;;;;;;275.70;260.63;;;;;;;0.60;100.00;100372.81;5085919;28;20044;-78
2022/04/04 03:36:01;;;;;;;285.27;269.65;;;;;;;0.70;100.00;100383.03;5067051;28;20060;-78
2022/04/04 03:38:35;;;;;;;347.02;327.25;;;;;;;0.80;100.00;100383.31;5063466;28;20523;-79
2022/04/04 03:41:09;;;;;;;331.23;312.30;;;;;;;0.78;100.00;100375.50;5073007;28;20052;-80
2022/04/04 03:43:44;;;;;;;358.42;337.77;;;;;;;0.84;100.00;100371.13;5064632;28;20515;-79
2022/04/04 03:46:17;;;;;;;316.02;298.30;;;;;;;0.79;100.00;100368.31;5060835;28;20049;-79
2022/04/04 03:48:50;;;;;;;315.48;297.85;;;;;;;0.77;100.00;100359.66;5066317;28;20048;-78
2022/04/04 03:51:23;;;;;;;279.40;264.23;;;;;;;0.82;100.00;100351.78;5074603;28;20048;-78
2022/04/04 03:53:56;;;;;;;270.95;256.35;;;;;;;0.84;100.00;100358.56;5069166;28;20059;-79
2022/04/04 03:56:29;;;;;;;256.40;242.63;;;;;;;0.86;100.00;100339.56;5071459;28;20760;-78
2022/04/04 03:59:04;;;;;;;242.57;229.65;;;;;;;0.89;100.00;100341.00;5070895;28;20787;-79
2022/04/04 04:01:37;;;;;;;213.93;202.38;;;;;;;0.89;100.00;100328.41;5088500;28;20041;-79
2022/04/04 04:04:10;;;;;;;212.48;201.00;;;;;;;0.96;100.00;100320.28;5067090;28;20059;-80
2022/04/04 04:06:43;;;;;;;209.27;198.15;;;;;;;0.95;100.00;100326.69;5071659;28;20041;-80
2022/04/04 04:09:16;;;;;;;172.77;163.52;;;;;;;0.91;100.00;100315.63;5069541;28;20779;-79
2022/04/04 04:11:49;;;;;;;155.70;147.43;;;;;;;0.97;100.00;100319.25;5062218;28;20052;-78
2022/04/04 04:14:25;;;;;;;148.05;140.23;;;;;;;1.04;100.00;100313.78;5101022;28;20048;-80
2022/04/04 04:16:58;;;;;;;136.75;129.57;;;;;;;0.97;100.00;100303.19;5070337;28;20052;-79
2022/04/04 04:22:22;;;;;;;126.20;119.68;;;;;;;1.05;100.00;100289.47;5064560;28;20064;-78
2022/04/04 04:24:55;;;;;;;106.60;101.05;;;;;;;0.98;100.00;100289.56;5062037;28;20057;-79
2022/04/04 04:27:28;;;;;;;102.32;96.97;;;;;;;0.93;100.00;100262.59;5069457;28;20063;-78
2022/04/04 04:29:58;;;;;;;112.82;106.97;;;;;;;1.11;100.00;100275.16;5070106;28;20051;-79
2022/04/04 04:32:31;;;;;;;104.80;99.32;;;;;;;1.16;100.00;100256.53;5096767;28;20421;-80
2022/04/04 04:35:05;;;;;;;105.05;99.57;;;;;;;1.18;100.00;100262.47;5068788;28;20047;-80
2022/04/04 04:37:39;;;;;;;98.78;93.63;;;;;;;1.16;100.00;100258.38;5067991;28;20051;-79
2022/04/04 04:40:14;;;;;;;84.22;79.78;;;;;;;1.06;100.00;100240.16;5069468;28;20048;-80
2022/04/04 04:42:50;;;;;;;85.45;80.90;;;;;;;1.16;100.00;100251.16;5063497;28;20393;-80
2022/04/04 04:45:24;;;;;;;95.28;90.32;;;;;;;1.19;100.00;100236.50;5070477;28;20063;-78
2022/04/04 04:47:57;;;;;;;85.78;81.25;;;;;;;1.22;100.00;100232.56;5071543;28;20085;-79
2022/04/04 04:50:31;;;;;;;80.25;76.00;;;;;;;1.27;100.00;100224.63;5102938;28;20071;-79
2022/04/04 04:53:04;;;;;;;73.88;69.93;;;;;;;1.26;100.00;100215.78;5070018;28;20098;-79
2022/04/04 04:55:37;;;;;;;69.70;65.97;;;;;;;1.27;100.00;100214.72;5060498;28;20052;-80
2022/04/04 04:58:10;;;;;;;65.15;61.65;;;;;;;1.24;100.00;100206.31;5070360;28;20052;-79
2022/04/04 05:00:41;;;;;;;62.53;59.15;;;;;;;1.30;100.00;100195.50;5079156;28;20059;-79
2022/04/04 05:03:26;;;;;;;57.80;54.70;;;;;;;1.38;100.00;100193.53;5069991;28;20067;-79
2022/04/04 05:05:59;;;;;;;55.22;52.28;;;;;;;1.32;100.00;100192.59;5059162;28;20059;-80
2022/04/04 05:08:32;;;;;;;52.63;49.83;;;;;;;1.37;100.00;100173.94;5059534;28;20044;-79
2022/04/04 05:11:01;;;;;;;50.03;47.35;;;;;;;1.38;100.00;100167.50;5067009;28;20044;-78
2022/04/04 05:13:34;;;;;;;49.67;46.97;;;;;;;1.46;100.00;100166.38;5063392;28;20055;-79
2022/04/04 05:16:10;;;;;;;47.08;44.58;;;;;;;1.47;100.00;100158.09;5074022;28;20488;-79
2022/04/04 05:18:44;;;;;;;41.88;39.58;;;;;;;1.51;100.00;100145.84;5049467;28;20060;-79
2022/04/04 05:21:13;;;;;;;43.28;40.95;;;;;;;1.57;100.00;100148.66;5059059;28;20461;-80
2022/04/04 05:23:41;;;;;;;39.53;37.42;;;;;;;1.45;100.00;100101.22;5069024;28;20059;-80
2022/04/04 05:26:14;;;;;;;38.10;36.05;;;;;;;1.61;100.00;100110.41;5066039;28;20055;-79
2022/04/04 05:28:42;;;;;;;30.90;29.20;;;;;;;1.57;100.00;100119.97;5070045;28;20048;-80
2022/04/04 05:31:17;;;;;;;30.55;28.85;;;;;;;1.65;100.00;100113.44;5064866;28;20506;-79
2022/04/04 05:33:51;;;;;;;29.02;27.42;;;;;;;1.66;100.00;100101.66;5065304;28;20388;-79
2022/04/04 05:36:20;;;;;;;28.77;27.17;;;;;;;1.73;100.00;100102.34;5069544;28;20060;-80
2022/04/04 05:38:53;;;;;;;26.13;24.63;;;;;;;1.76;100.00;100111.78;5065570;28;20049;-80
2022/04/04 05:41:27;;;;;;;24.27;22.88;;;;;;;1.78;100.00;100105.16;5071463;28;20043;-79
2022/04/04 05:44:01;;;;;;;21.15;19.95;;;;;;;1.92;100.00;100088.78;5070467;28;20053;-80
2022/04/04 05:46:35;;;;;;;21.25;20.05;;;;;;;1.89;100.00;100087.38;5069481;28;20435;-79
2022/04/04 05:49:08;;;;;;;19.08;17.98;;;;;;;1.92;100.00;100084.25;5066653;28;20059;-80
2022/04/04 05:51:36;;;;;;;19.20;18.10;;;;;;;1.94;100.00;100079.44;5066679;28;20041;-79
2022/04/04 05:54:10;;;;;;;17.48;16.48;;;;;;;1.95;100.00;100081.06;5069764;28;20052;-80
2022/04/04 05:56:44;;;;;;;16.52;15.52;;;;;;;2.01;100.00;100065.88;5065435;28;20048;-80
2022/04/04 05:59:13;;;;;;;15.45;14.55;;;;;;;2.08;100.00;100063.88;5067031;28;20044;-80
2022/04/04 06:01:47;;;;;;;12.77;11.98;;;;;;;2.15;100.00;100055.69;5067638;28;20053;-79
2022/04/04 06:04:15;;;;;;;13.05;12.25;;;;;;;2.18;100.00;100053.34;5070647;28;20055;-79
2022/04/04 06:06:48;;;;;;;13.05;12.25;;;;;;;2.24;100.00;100056.94;5066666;28;20048;-80
2022/04/04 06:09:16;;;;;;;13.02;12.23;;;;;;;2.24;100.00;100061.47;5062437;28;20048;-80
2022/04/04 06:11:49;;;;;;;11.27;10.57;;;;;;;2.28;100.00;100049.22;5058569;28;20045;-80
2022/04/04 06:14:18;;;;;;;11.57;10.80;;;;;;;2.37;100.00;100050.47;5064595;28;20052;-79
2022/04/04 06:16:52;;;;;;;11.65;10.88;;;;;;;2.42;100.00;100050.56;5060748;28;20048;-79
2022/04/04 06:19:27;;;;;;;11.68;10.88;;;;;;;2.51;100.00;100035.69;5063034;28;20059;-80
2022/04/04 06:22:00;;;;;;;10.88;10.18;;;;;;;2.53;100.00;100038.13;5063888;28;20041;-78
2022/04/04 06:24:33;;;;;;;11.00;10.30;;;;;;;2.52;100.00;100025.75;5061965;28;20043;-79
2022/04/04 06:27:02;;;;;;;9.65;8.98;;;;;;;2.56;100.00;100029.56;5078858;28;20690;-78
2022/04/04 06:29:35;;;;;;;10.60;9.90;;;;;;;2.62;100.00;100022.41;5068159;28;20053;-79
2022/04/04 06:32:10;;;;;;;10.27;9.57;;;;;;;2.65;100.00;100021.94;5068372;28;20703;-81
2022/04/04 06:34:38;;;;;;;9.07;8.48;;;;;;;2.65;100.00;100011.19;5072488;28;20045;-79
2022/04/04 06:37:09;;;;;;;9.07;8.48;;;;;;;2.67;100.00;99993.75;5058608;28;20409;-79
2022/04/04 06:39:38;;;;;;;9.30;8.70;;;;;;;2.68;100.00;99990.03;5067302;28;20049;-79
2022/04/04 06:42:11;;;;;;;10.23;9.52;;;;;;;2.70;100.00;99995.16;5052096;28;20056;-82
2022/04/04 06:44:39;;;;;;;9.57;8.93;;;;;;;2.67;100.00;99988.38;5094515;28;20057;-79
2022/04/04 06:47:14;;;;;;;9.50;8.82;;;;;;;2.75;100.00;99978.28;5082189;28;20067;-81
2022/04/04 06:49:47;;;;;;;9.90;9.20;;;;;;;2.74;100.00;99974.00;5051786;28;20052;-80
2022/04/04 06:52:20;;;;;;;10.52;9.82;;;;;;;2.79;100.00;99976.72;5053093;28;20048;-82
2022/04/04 06:54:54;;;;;;;10.85;10.15;;;;;;;2.80;100.00;99971.13;5053716;28;20067;-81
2022/04/04 06:57:27;;;;;;;8.93;8.32;;;;;;;2.81;100.00;99955.81;5052462;28;20079;-81
2022/04/04 07:00:01;;;;;;;9.98;9.27;;;;;;;2.87;100.00;99952.13;5051689;28;20068;-79
2022/04/04 07:02:36;;;;;;;11.25;10.55;;;;;;;2.78;100.00;99951.75;5051945;28;20052;-79
2022/04/04 07:05:05;;;;;;;11.15;10.45;;;;;;;2.77;100.00;99941.25;5049768;28;20671;-82
2022/04/04 07:07:38;;;;;;;11.98;11.18;;;;;;;2.80;100.00;99932.69;5052126;28;20049;-80
2022/04/04 07:10:11;;;;;;;13.20;12.40;;;;;;;2.68;100.00;99947.03;5051939;28;20733;-80
2022/04/04 07:12:42;;;;;;;15.32;14.43;;;;;;;2.61;100.00;99916.84;5052074;28;20052;-80
2022/04/04 07:15:16;;;;;;;16.55;15.55;;;;;;;2.65;100.00;99909.94;5085020;28;20048;-82
2022/04/04 07:17:51;;;;;;;24.60;23.20;;;;;;;2.62;100.00;99923.03;5061451;28;20067;-81
2022/04/04 07:20:24;;;;;;;27.60;26.08;;;;;;;2.63;100.00;99908.53;5053815;28;20119;-78
2022/04/04 07:22:52;;;;;;;34.20;32.30;;;;;;;2.61;100.00;99894.53;5056908;28;20080;-79
2022/04/04 07:25:27;;;;;;;40.53;38.35;;;;;;;2.54;100.00;99897.38;5050041;28;20071;-79
2022/04/04 07:27:55;;;;;;;51.42;48.67;;;;;;;2.42;100.00;99881.38;5052065;28;20057;-82
2022/04/04 07:30:28;;;;;;;61.53;58.22;;;;;;;2.50;100.00;99882.81;5051396;28;21129;-81
2022/04/04 07:33:04;;;;;;;77.38;73.25;;;;;;;2.38;100.00;99861.44;5049039;28;20056;-80
2022/04/04 07:35:37;;;;;;;117.20;111.13;;;;;;;2.35;100.00;99873.47;5050711;28;20049;-80
2022/04/04 07:38:11;;;;;;;125.68;119.13;;;;;;;2.28;100.00;99848.66;5050386;28;20055;-81
2022/04/04 07:40:40;;;;;;;169.25;160.18;;;;;;;2.29;100.00;99844.94;5061404;28;20053;-80
2022/04/04 07:43:09;;;;;;;217.02;205.48;;;;;;;2.29;100.00;99836.88;5049576;28;20044;-82
2022/04/04 07:45:42;;;;;;;343.83;324.25;;;;;;;2.27;100.00;99827.44;5049703;28;20427;-80
2022/04/04 07:48:16;;;;;;;418.65;393.85;;;;;;;2.10;100.00;99814.00;5050452;28;20052;-80
2022/04/04 07:50:45;;;;;;;671.72;627.38;;;;;;;2.12;100.00;99814.59;5054430;28;20041;-80
2022/04/04 07:53:18;;;;;;;;;;;;;;;2.21;100.00;99807.75;5057333;28;20053;-82
2022/04/04 07:55:51;;;;;;;1066.68;986.92;;;;;;;2.00;100.00;99803.94;5052159;28;20652;-82
2022/04/04 07:58:24;;;;;;;1177.15;999.90;;;;;;;2.09;100.00;99794.41;5050653;28;20056;-80
2022/04/04 08:00:57;;;;;;;1194.97;999.90;;;;;;;2.11;100.00;99786.13;5045968;28;20055;-78
2022/04/04 08:03:32;;;;;;;1207.40;999.90;;;;;;;2.08;100.00;99770.50;5053409;28;20049;-80
2022/04/04 08:06:05;;;;;;;1210.75;999.90;;;;;;;2.25;100.00;99767.78;5051686;28;20060;-78
2022/04/04 08:08:38;;;;;;;;;;;;;;;2.16;100.00;99733.31;5067727;28;20181;-80
2022/04/04 08:11:11;;;;;;;;;;;;;;;2.11;100.00;99759.28;5055800;28;19928;-82
2022/04/04 08:13:45;;;;;;;;;;;;;;;2.18;100.00;99752.69;5046253;28;19924;-79
2022/04/04 08:16:13;;;;;;;1217.82;999.90;;;;;;;2.08;100.00;99732.94;5044718;28;19935;-80
2022/04/04 08:18:50;;;;;;;;;;;;;;;2.12;100.00;99724.13;5066069;28;20065;-79
2022/04/04 08:21:23;;;;;;;1230.95;999.90;;;;;;;2.04;100.00;99717.34;5048345;28;19935;-81
2022/04/04 08:23:57;;;;;;;;;;;;;;;2.02;100.00;99724.00;5054587;28;20037;-80
2022/04/04 08:26:30;;;;;;;;;;;;;;;1.95;100.00;99688.50;5051933;28;19935;-80
2022/04/04 08:29:03;;;;;;;;;;;;;;;1.98;100.00;99694.16;5045439;28;19928;-80
2022/04/04 08:31:31;;;;;;;;;;;;;;;1.95;100.00;99696.53;5046403;28;19929;-79
2022/04/04 08:34:06;;;;;;;1261.43;999.90;;;;;;;1.93;100.00;99667.25;5050658;28;19931;-78
2022/04/04 08:36:39;;;;;;;;;;;;;;;1.89;100.00;99670.69;5051459;28;20563;-80
2022/04/04 08:39:12;;;;;;;;;;;;;;;2.06;100.00;99652.69;5087283;28;20237;-79
2022/04/04 08:41:40;;;;;;;;;;;;;;;1.86;100.00;99642.47;5050042;28;19935;-81
2022/04/04 08:44:15;;;;;;;1282.15;999.90;;;;;;;1.80;100.00;99644.28;5044907;28;19928;-79
2022/04/04 08:46:44;;;;;;;;;;;;;;;1.76;100.00;99632.41;5043798;28;20086;-80
2022/04/04 08:49:18;;;;;;;1298.87;999.90;;;;;;;1.74;100.00;99615.78;5043215;28;19935;-78
2022/04/04 08:51:52;;;;;;;1311.00;999.90;;;;;;;1.86;100.00;99605.75;5047826;28;20296;-80
2022/04/04 08:54:25;;;;;;;1319.40;999.90;;;;;;;1.89;100.00;99600.91;5067061;28;20060;-79
2022/04/04 08:56:53;;;;;;;1331.95;999.90;;;;;;;1.78;100.00;99581.19;5047425;28;20621;-78
2022/04/04 08:59:26;;;;;;;;;;;;;;;1.84;100.00;99580.22;5043175;28;20056;-79
2022/04/04 09:01:55;;;;;;;;;;;;;;;1.92;100.00;99582.47;5066810;28;19929;-79
2022/04/04 09:04:24;;;;;;;1336.47;999.90;;;;;;;1.84;100.00;99572.97;5049932;28;19939;-79
2022/04/04 09:06:58;;;;;;;1338.90;999.90;;;;;;;1.87;100.00;99560.94;5046660;28;20053;-79
2022/04/04 09:09:38;;;;;;;1339.38;999.90;;;;;;;1.88;100.00;99551.84;5043816;28;20053;-81
2022/04/04 09:12:15;;;;;;;1351.68;999.90;;;;;;;1.83;100.00;99541.81;5048835;28;21789;-79
2022/04/04 09:14:45;;;;;;;1361.05;999.90;;;;;;;1.87;100.00;99507.28;5044260;28;20103;-78
2022/04/04 09:17:16;;;;;;;1364.70;999.90;;;;;;;1.91;100.00;99518.31;5047369;28;20071;-80
2022/04/04 09:19:51;;;;;;;;;;;;;;;1.85;100.00;99522.78;5054538;28;20060;-80
2022/04/04 09:22:25;;;;;;;1366.40;999.90;;;;;;;1.92;100.00;99515.38;5050599;28;19928;-80
2022/04/04 09:25:00;;;;;;;;;;;;;;;1.94;100.00;99513.25;5060206;28;20908;-79
2022/04/04 09:27:34;;;;;;;;;;;;;;;1.99;100.00;99497.22;5049193;28;19925;-78
2022/04/04 09:30:05;;;;;;;1367.18;999.90;;;;;;;1.92;100.00;99499.28;5052116;28;19928;-80
2022/04/04 09:32:41;;;;;;;1372.00;999.90;;;;;;;1.88;100.00;99492.81;5051063;28;20056;-80
2022/04/04 09:35:16;;;;;;;;;;;;;;;1.91;100.00;99494.97;5047177;28;20574;-80
2022/04/04 09:37:45;;;;;;;;;;;;;;;1.88;100.00;99465.97;5058499;28;20695;-78
2022/04/04 09:40:21;;;;;;;1390.13;999.90;;;;;;;1.83;100.00;99455.97;5042561;28;19928;-78
2022/04/04 09:42:58;;;;;;;1394.05;999.90;;;;;;;1.75;100.00;99440.34;5048239;28;20055;-77
2022/04/04 09:45:31;;;;;;;;;;;;;;;1.94;100.00;99450.75;5046810;28;20053;-79
2022/04/04 09:48:06;;;;;;;1399.25;999.90;;;;;;;1.92;100.00;99452.84;5052182;28;19928;-77
2022/04/04 09:50:44;;;;;;;1407.53;999.90;;;;;;;2.04;100.00;99438.25;5047614;28;20056;-77
2022/04/04 09:53:20;;;;;;;1408.35;999.90;;;;;;;2.02;100.00;99423.44;5047261;28;20056;-81
2022/04/04 09:55:56;;;;;;;1414.03;999.90;;;;;;;2.02;100.00;99420.78;5048515;28;20091;-80
2022/04/04 09:58:26;;;;;;;1411.20;999.90;;;;;;;1.94;100.00;99421.22;5054469;28;20052;-79
2022/04/04 10:01:03;;;;;;;1414.93;999.90;;;;;;;2.01;100.00;99411.09;5053320;28;20064;-81
2022/04/04 10:03:38;;;;;;;1425.35;999.90;;;;;;;2.01;100.00;99392.31;5046931;28;20552;-80
2022/04/04 10:06:14;;;;;;;1436.88;999.90;;;;;;;2.14;100.00;99391.06;5049778;28;20053;-81
2022/04/04 10:08:44;;;;;;;;;;;;;;;2.15;100.00;99401.53;5049583;28;20059;-81
2022/04/04 10:11:18;;;;;;;1457.70;999.90;;;;;;;2.15;100.00;99401.53;5050436;28;20616;-78
2022/04/04 10:13:52;;;;;;;1460.78;999.90;;;;;;;2.19;100.00;99385.75;5056064;28;20060;-79
2022/04/04 10:16:26;;;;;;;1464.32;999.90;;;;;;;2.27;100.00;99366.50;5052803;28;20041;-79
2022/04/04 10:18:57;;;;;;;1465.32;999.90;;;;;;;2.33;100.00;99361.97;5053381;28;20055;-81
2022/04/04 10:21:27;;;;;;;1468.13;999.90;;;;;;;2.28;100.00;99351.19;5052367;28;20064;-78
2022/04/04 10:24:01;;;;;;;;;;;;;;;2.40;100.00;99353.69;5053430;28;21044;-76
2022/04/04 10:26:36;;;;;;;1479.00;999.90;;;;;;;2.33;100.00;99356.59;5050790;28;20575;-81
2022/04/04 10:29:12;;;;;;;1481.32;999.90;;;;;;;2.39;100.00;99326.03;5048340;28;20060;-82
2022/04/04 10:31:46;;;;;;;1491.97;999.90;;;;;;;2.28;100.00;99314.44;5051968;28;20524;-83
2022/04/04 10:34:21;;;;;;;1487.20;999.90;;;;;;;2.33;100.00;99309.06;5057517;28;20048;-79
2022/04/04 10:36:59;;;;;;;1496.47;999.90;;;;;;;2.36;100.00;99324.69;5063254;28;20045;-79
2022/04/04 10:39:36;;;;;;;1505.63;999.90;;;;;;;2.33;100.00;99316.31;5057067;28;20040;-78
2022/04/04 10:42:31;;;;;;;1510.95;999.90;;;;;;;2.42;100.00;99290.59;5072015;28;20064;-78
2022/04/04 10:45:03;;;;;;;1509.47;999.90;;;;;;;2.31;100.00;99297.78;5065072;28;20056;-77
2022/04/04 10:47:38;;;;;;;1515.15;999.90;;;;;;;2.26;100.00;99296.97;5061871;28;20056;-77
2022/04/04 10:50:21;;;;;;;1527.68;999.90;;;;;;;2.25;100.00;99288.09;5067903;28;20052;-78
2022/04/04 10:52:59;;;;;;;1529.03;999.90;;;;;;;2.27;100.00;99267.16;5064069;28;20056;-79
2022/04/04 10:55:44;;;;;;;1535.53;999.90;;;;;;;2.31;100.00;99281.69;5070669;28;20040;-78
2022/04/04 10:58:22;;;;;;;1541.43;999.90;;;;;;;2.32;100.00;99269.06;5070047;28;20049;-78
2022/04/04 11:01:02;;;;;;;1543.13;999.90;;;;;;;2.30;100.00;99263.94;5069774;28;20519;-78
2022/04/04 11:03:38;;;;;;;1545.65;999.90;;;;;;;2.27;100.00;99269.84;5073011;28;20044;-78
2022/04/04 11:09:19;;;;;;;1565.88;999.90;;;;;;;2.25;100.00;99265.81;5073095;28;20052;-78
2022/04/04 11:11:55;;;;;;;1564.88;999.90;;;;;;;2.27;100.00;99237.63;5066971;28;20049;-77
2022/04/04 11:14:57;;;;;;;1568.32;999.90;;;;;;;2.25;100.00;99231.72;5070932;28;20052;-80
2022/04/04 11:17:41;;;;;;;1577.18;999.90;;;;;;;2.26;100.00;99241.38;5067654;28;20493;-78
2022/04/04 11:20:33;;;;;;;1587.82;999.90;;;;;;;2.26;100.00;99246.75;5066823;28;20100;-79
2022/04/04 11:23:08;;;;;;;1583.95;999.90;;;;;;;2.23;100.00;99220.44;5066398;28;20466;-77
2022/04/04 11:25:52;;;;;;;1594.05;999.90;;;;;;;2.31;100.00;99219.94;5059409;28;20503;-78
2022/04/04 11:28:30;;;;;;;1597.10;999.90;;;;;;;2.37;100.00;99221.56;5071899;28;20060;-78
2022/04/04 11:31:07;;;;;;;1598.85;999.90;;;;;;;2.23;100.00;99190.91;5059388;28;20084;-80
2022/04/04 11:33:47;;;;;;;1606.00;999.90;;;;;;;2.32;100.00;99180.47;5065921;28;20055;-80
2022/04/04 11:36:23;;;;;;;1603.35;999.90;;;;;;;2.24;100.00;99194.38;5067256;28;20775;-79
2022/04/04 11:39:03;;;;;;;1609.75;999.90;;;;;;;2.04;100.00;99145.75;5070912;28;20378;-78
2022/04/04 11:41:46;;;;;;;1610.65;999.90;;;;;;;2.33;100.00;99192.81;5066887;28;20044;-78
2022/04/04 11:44:23;;;;;;;1620.30;999.90;;;;;;;2.35;100.00;99174.59;5067228;28;20053;-79
2022/04/04 11:47:06;;;;;;;1619.70;999.90;;;;;;;2.28;100.00;99174.00;5064953;28;20048;-80
2022/04/04 11:49:42;;;;;;;1616.90;999.90;;;;;;;2.33;100.00;99153.34;5078254;28;20048;-79